createdAt,value
2019-03-15T00:00:52.204Z,95425.77
2019-03-15T00:03:42.547Z,95424.84
2019-03-15T00:12:54.318Z,95439.07
2019-03-15T00:15:51.669Z,95435.43
2019-03-15T00:18:36.004Z,95443.02
2019-03-15T00:21:57.601Z,95442.09
2019-03-15T00:24:46.675Z,95430.67
2019-03-15T00:27:36.404Z,95430.78
2019-03-15T00:30:29.718Z,95437.28
2019-03-15T00:33:19.241Z,95433.00
2019-03-15T00:36:13.934Z,95444.05
2019-03-15T00:39:01.601Z,95441.42
2019-03-15T00:41:55.039Z,95449.00
2019-03-15T00:44:46.850Z,95446.56
2019-03-15T00:47:36.656Z,95453.64
2019-03-15T00:50:28.214Z,95460.37
2019-03-15T00:53:36.708Z,95463.30
2019-03-15T00:56:15.866Z,95459.02
2019-03-15T00:59:06.433Z,95462.09
2019-03-15T01:02:00.147Z,95468.26
2019-03-15T01:04:54.724Z,95455.86
2019-03-15T01:07:50.651Z,95463.55
2019-03-15T01:10:39.616Z,95466.47
2019-03-15T01:13:33.610Z,95472.72
2019-03-15T01:16:34.691Z,95469.30
2019-03-15T01:19:57.181Z,95468.44
2019-03-15T01:22:46.587Z,95466.41
2019-03-15T01:25:39.494Z,95472.92
2019-03-15T01:29:01.673Z,95472.85
2019-03-15T01:35:41.023Z,95464.34
2019-03-15T01:38:31.098Z,95471.35
2019-03-15T01:41:19.071Z,95472.70
2019-03-15T01:44:11.726Z,95465.86
2019-03-15T01:49:51.628Z,95454.34
2019-03-15T01:52:41.456Z,95450.25
2019-03-15T01:55:30.303Z,95450.30
2019-03-15T01:58:19.992Z,95450.27
2019-03-15T02:01:08.163Z,95443.66
2019-03-15T02:03:58.539Z,95459.81
2019-03-15T02:06:49.182Z,95458.52
2019-03-15T02:09:47.400Z,95456.66
2019-03-15T02:12:37.022Z,95459.48
2019-03-15T02:15:33.479Z,95454.83
2019-03-15T02:18:19.110Z,95462.05
2019-03-15T02:21:06.892Z,95463.88
2019-03-15T02:23:57.587Z,95460.58
2019-03-15T02:27:12.748Z,95465.94
2019-03-15T02:29:39.819Z,95475.36
2019-03-15T02:32:30.699Z,95489.27
2019-03-15T02:35:25.698Z,95481.63
2019-03-15T02:38:18.358Z,95475.28
2019-03-15T02:41:13.387Z,95474.45
2019-03-15T02:44:26.925Z,95473.20
2019-03-15T02:47:24.446Z,95475.53
2019-03-15T02:50:37.514Z,95473.81
2019-03-15T02:53:41.894Z,95470.02
2019-03-15T02:56:27.655Z,95471.50
2019-03-15T02:59:17.687Z,95474.28
2019-03-15T03:05:24.782Z,95470.47
2019-03-15T03:08:31.733Z,95463.24
2019-03-15T03:11:19.086Z,95470.22
2019-03-15T03:14:07.297Z,95466.88
2019-03-15T03:16:58.339Z,95460.06
2019-03-15T03:19:49.044Z,95458.10
2019-03-15T03:22:39.619Z,95458.40
2019-03-15T03:25:41.764Z,95471.95
2019-03-15T03:28:31.227Z,95465.66
2019-03-15T03:31:24.724Z,95484.19
2019-03-15T03:34:16.802Z,95492.23
2019-03-15T03:37:06.474Z,95483.55
2019-03-15T03:39:55.608Z,95480.20
2019-03-15T03:42:47.589Z,95475.20
2019-03-15T03:45:48.272Z,95487.94
2019-03-15T03:48:39.909Z,95480.52
2019-03-15T03:51:34.799Z,95482.36
2019-03-15T03:54:22.677Z,95483.94
2019-03-15T03:57:13.295Z,95483.09
2019-03-15T04:00:04.917Z,95479.30
2019-03-15T04:14:22.500Z,95489.66
2019-03-15T04:17:32.661Z,95496.86
2019-03-15T04:20:52.616Z,95500.73
2019-03-15T04:23:48.360Z,95502.65
2019-03-15T04:33:05.201Z,95495.80
2019-03-15T04:35:59.092Z,95489.17
2019-03-15T04:38:56.862Z,95495.05
2019-03-15T04:42:08.854Z,95494.48
2019-03-15T04:44:58.961Z,95495.30
2019-03-15T04:47:51.026Z,95489.02
2019-03-15T04:51:02.276Z,95494.44
2019-03-15T04:54:05.698Z,95491.91
2019-03-15T04:57:32.527Z,95498.75
2019-03-15T04:59:37.664Z,95496.35
2019-03-15T05:02:33.423Z,95494.38
2019-03-15T05:05:29.146Z,95499.08
2019-03-15T05:08:13.821Z,95498.59
2019-03-15T05:11:05.085Z,95507.38
2019-03-15T05:13:58.713Z,95502.61
2019-03-15T05:16:46.746Z,95509.34
2019-03-15T05:20:08.711Z,95509.47
2019-03-15T05:23:15.512Z,95515.72
2019-03-15T05:25:43.070Z,95522.25
2019-03-15T05:32:18.529Z,95516.38
2019-03-15T06:01:28.817Z,95524.42
2019-03-15T06:04:19.411Z,95524.94
2019-03-15T06:04:21.722Z,95531.53
2019-03-15T06:07:07.725Z,95518.77
2019-03-15T06:09:56.614Z,95507.58
2019-03-15T06:12:54.587Z,95504.49
2019-03-15T06:15:46.037Z,95492.50
2019-03-15T06:18:38.670Z,95480.75
2019-03-15T06:21:26.969Z,95489.31
2019-03-15T06:24:16.149Z,95488.73
2019-03-15T06:27:04.167Z,95489.09
2019-03-15T06:29:52.325Z,95501.19
2019-03-15T06:32:41.810Z,95492.47
2019-03-15T06:35:31.064Z,95493.70
2019-03-15T06:38:19.358Z,95496.91
2019-03-15T06:41:14.499Z,95490.48
2019-03-15T06:44:02.410Z,95492.64
2019-03-15T06:46:50.620Z,95496.89
2019-03-15T06:49:42.367Z,95488.00
2019-03-15T06:52:30.116Z,95490.69
2019-03-15T06:55:17.928Z,95501.83
2019-03-15T06:58:09.919Z,95481.09
2019-03-15T07:01:05.428Z,95491.41
2019-03-15T07:04:08.154Z,95491.25
2019-03-15T07:08:38.571Z,95496.32
2019-03-15T07:36:30.577Z,95470.55
2019-03-15T07:39:18.338Z,95504.33
2019-03-15T07:42:07.025Z,95481.24
2019-03-15T07:44:58.667Z,95505.62
2019-03-15T07:47:47.688Z,95494.66
2019-03-15T07:50:35.648Z,95496.73
2019-03-15T07:53:26.056Z,95521.39
2019-03-15T07:56:13.765Z,95514.97
2019-03-15T07:59:20.970Z,95509.27
2019-03-15T08:02:10.422Z,95507.28
2019-03-15T08:04:58.692Z,95503.23
2019-03-15T08:07:50.448Z,95508.97
2019-03-15T08:10:38.636Z,95510.54
2019-03-15T08:13:27.066Z,95513.71
2019-03-15T08:16:14.884Z,95517.30
2019-03-15T08:19:05.146Z,95513.25
2019-03-15T08:21:56.800Z,95532.77
2019-03-15T08:24:51.538Z,95536.02
2019-03-15T08:27:35.346Z,95542.23
2019-03-15T08:30:26.354Z,95537.45
2019-03-15T08:33:14.278Z,95550.09
2019-03-15T08:36:03.002Z,95553.50
2019-03-15T08:38:51.347Z,95570.58
2019-03-15T08:41:39.423Z,95553.73
2019-03-15T08:44:28.831Z,95562.48
2019-03-15T08:47:34.522Z,95563.50
2019-03-15T08:50:24.701Z,95564.22
2019-03-15T08:53:12.667Z,95572.08
2019-03-15T08:56:06.825Z,95561.73
2019-03-15T08:58:54.554Z,95566.27
2019-03-15T09:01:44.741Z,95567.63
2019-03-15T09:04:36.776Z,95569.36
2019-03-15T09:07:32.698Z,95558.31
2019-03-15T09:10:24.689Z,95572.59
2019-03-15T09:13:12.914Z,95586.28
2019-03-15T09:16:03.041Z,95589.86
2019-03-15T09:18:50.913Z,95555.46
2019-03-15T09:21:39.645Z,95587.70
2019-03-15T09:24:32.043Z,95602.95
2019-03-15T09:27:21.795Z,95588.98
2019-03-15T09:30:22.630Z,95589.86
2019-03-15T09:33:02.971Z,95594.39
2019-03-15T09:35:55.040Z,95572.45
2019-03-15T09:38:46.246Z,95573.55
2019-03-15T09:41:39.852Z,95591.27
2019-03-15T09:44:28.019Z,95560.58
2019-03-15T09:47:18.352Z,95619.45
2019-03-15T09:50:20.655Z,95583.60
2019-03-15T09:53:01.809Z,95599.06
2019-03-15T09:55:56.258Z,95588.53
2019-03-15T09:58:46.393Z,95606.83
2019-03-15T10:01:35.719Z,95608.08
2019-03-15T10:04:31.761Z,95610.15
2019-03-15T10:07:20.381Z,95615.31
2019-03-15T10:10:13.944Z,95605.76
2019-03-15T10:13:06.192Z,95603.67
2019-03-15T10:16:00.184Z,95588.90
2019-03-15T10:18:52.521Z,95590.16
2019-03-15T10:21:43.636Z,95615.46
2019-03-15T10:24:33.039Z,95624.20
2019-03-15T10:27:21.810Z,95622.98
2019-03-15T10:30:12.010Z,95628.00
2019-03-15T10:33:01.980Z,95621.71
2019-03-15T10:35:50.827Z,95636.73
2019-03-15T10:38:40.614Z,95644.70
2019-03-15T10:41:28.737Z,95656.63
2019-03-15T10:44:19.810Z,95654.69
2019-03-15T10:47:08.223Z,95660.72
2019-03-15T10:49:57.222Z,95676.72
2019-03-15T10:52:45.292Z,95673.38
2019-03-15T10:55:37.125Z,95676.95
2019-03-15T10:58:25.949Z,95681.41
2019-03-15T11:01:15.474Z,95660.10
2019-03-15T11:04:16.804Z,95679.02
2019-03-15T11:07:07.863Z,95681.10
2019-03-15T11:10:02.987Z,95671.05
2019-03-15T11:12:52.612Z,95669.22
2019-03-15T11:15:47.425Z,95685.61
2019-03-15T11:18:44.313Z,95678.83
2019-03-15T11:26:13.567Z,95675.91
2019-03-15T11:28:58.123Z,95672.45
2019-03-15T11:35:09.017Z,95662.62
2019-03-15T11:38:01.013Z,95661.98
2019-03-15T11:41:00.883Z,95662.86
2019-03-15T11:44:03.767Z,95699.91
2019-03-15T11:47:29.644Z,95700.58
2019-03-15T11:50:21.007Z,95696.08
2019-03-15T11:53:19.042Z,95703.66
2019-03-15T11:56:10.787Z,95702.81
2019-03-15T11:59:02.281Z,95715.13
2019-03-15T12:02:03.439Z,95721.56
2019-03-15T12:05:06.006Z,95727.50
2019-03-15T12:08:59.739Z,95736.88
2019-03-15T12:12:21.714Z,95746.93
2019-03-15T12:19:35.850Z,95727.45
2019-03-15T12:22:26.019Z,95729.68
2019-03-15T12:25:19.232Z,95727.64
2019-03-15T12:28:17.547Z,95716.38
2019-03-15T12:32:23.590Z,95719.97
2019-03-15T12:40:16.323Z,95698.43
2019-03-15T13:03:59.106Z,95729.75
2019-03-15T13:06:52.860Z,95741.70
2019-03-15T13:10:44.990Z,95741.60
2019-03-15T13:13:51.019Z,95741.50
2019-03-15T13:17:27.804Z,95751.77
2019-03-15T13:20:22.466Z,95753.55
2019-03-15T13:23:11.599Z,95748.56
2019-03-15T13:26:09.172Z,95762.00
2019-03-15T13:29:13.402Z,95763.87
2019-03-15T13:32:32.925Z,95760.57
2019-03-15T13:47:28.232Z,95775.81
2019-03-15T13:51:22.755Z,95779.34
2019-03-15T13:54:49.291Z,95778.52
2019-03-15T13:58:57.628Z,95777.88
2019-03-15T23:33:58.176Z,96045.30
2019-03-15T23:37:00.579Z,96051.49
2019-03-15T23:41:08.193Z,96058.50
2019-03-15T23:44:14.327Z,96051.89
2019-03-15T23:47:03.388Z,96045.93
2019-03-15T23:54:00.649Z,96054.36
2019-03-15T23:59:58.984Z,96049.58
